Time;durP1;ratioP1;P1;durP2;ratioP2;P2;SDS_P1;SDS_P2;PMS_P1;PMS_P2;Temp;Humidity;BMP_temperature;BMP_pressure;BME280_temperature;BME280_humidity;BME280_pressure;Samples;Min_cycle;Max_cycle;Signal;HPM_P1;HPM_P2
2023/08/23 00:01:37;;;;;;;11.23;5.60;;;18.20;99.90;;;;;;4996508;28;20392;-72
2023/08/23 00:04:03;;;;;;;9.15;5.22;;;18.20;99.90;;;;;;5003965;28;20106;-72
2023/08/23 00:06:28;;;;;;;9.23;5.68;;;18.30;99.90;;;;;;4996633;28;20482;-72
2023/08/23 00:08:54;;;;;;;12.25;5.68;;;18.20;99.90;;;;;;4997298;28;20466;-72
2023/08/23 00:11:20;;;;;;;11.45;5.13;;;18.30;99.90;;;;;;4996257;28;20087;-73
2023/08/23 00:13:46;;;;;;;9.70;4.78;;;18.30;99.90;;;;;;4987109;28;20046;-73
2023/08/23 00:16:12;;;;;;;8.40;4.40;;;18.30;99.90;;;;;;4990741;28;20026;-72
2023/08/23 00:18:38;;;;;;;8.23;4.90;;;18.30;99.90;;;;;;4997322;28;20033;-72
2023/08/23 00:21:04;;;;;;;8.07;4.15;;;18.30;99.90;;;;;;4996080;28;20478;-72
2023/08/23 00:23:30;;;;;;;8.30;4.43;;;18.30;99.90;;;;;;4992420;28;20075;-73
2023/08/23 00:25:56;;;;;;;8.40;4.85;;;18.20;99.90;;;;;;4996411;28;20026;-72
2023/08/23 00:28:21;;;;;;;7.82;4.18;;;18.20;99.90;;;;;;4996067;28;20026;-72
2023/08/23 00:30:52;;;;;;;8.77;4.10;;;18.20;99.90;;;;;;4987916;28;20037;-72
2023/08/23 00:33:18;;;;;;;6.70;4.05;;;18.20;99.90;;;;;;4992525;28;20033;-72
2023/08/23 00:35:44;;;;;;;9.30;4.00;;;18.20;99.90;;;;;;4995813;28;20026;-72
2023/08/23 00:38:09;;;;;;;6.18;3.78;;;18.20;99.90;;;;;;4996016;28;20502;-72
2023/08/23 00:40:35;;;;;;;6.50;3.90;;;18.20;99.90;;;;;;4986452;28;20030;-72
2023/08/23 00:43:01;;;;;;;7.30;4.15;;;18.20;99.90;;;;;;4995019;28;20026;-72
2023/08/23 00:45:30;;;;;;;7.63;4.13;;;18.20;99.90;;;;;;5000283;28;20022;-72
2023/08/23 00:47:56;;;;;;;5.40;3.78;;;18.10;99.90;;;;;;4991057;28;20041;-73
2023/08/23 00:50:22;;;;;;;6.65;3.95;;;18.10;99.90;;;;;;4995608;28;20243;-73
2023/08/23 00:52:48;;;;;;;8.75;3.92;;;18.10;99.90;;;;;;4995865;28;20106;-73
2023/08/23 00:55:14;;;;;;;6.82;4.38;;;18.10;99.90;;;;;;4987251;28;20026;-72
2023/08/23 00:57:40;;;;;;;8.15;3.80;;;18.10;99.90;;;;;;4989193;28;20029;-73
2023/08/23 01:00:06;;;;;;;12.55;4.13;;;18.10;99.90;;;;;;4995142;28;20081;-73
2023/08/23 01:02:33;;;;;;;7.45;4.40;;;18.10;99.90;;;;;;4995587;28;20109;-73
2023/08/23 01:04:59;;;;;;;8.65;4.45;;;18.10;99.90;;;;;;4991223;28;20015;-72
2023/08/23 01:07:58;;;;;;;9.15;4.53;;;18.00;99.90;;;;;;4994265;28;20025;-72
2023/08/23 01:11:03;;;;;;;8.05;4.50;;;18.00;99.90;;;;;;4992612;28;20107;-72
2023/08/23 01:13:40;;;;;;;9.15;4.90;;;18.00;99.90;;;;;;4993771;28;20852;-72
2023/08/23 01:16:09;;;;;;;9.52;4.10;;;18.00;99.90;;;;;;4996914;28;20034;-72
2023/08/23 01:18:36;;;;;;;7.38;4.38;;;17.90;99.90;;;;;;5010930;28;20094;-72
2023/08/23 01:21:03;;;;;;;9.20;4.25;;;17.90;99.90;;;;;;5013414;28;20034;-73
2023/08/23 01:23:30;;;;;;;10.35;4.55;;;17.90;99.90;;;;;;4996437;28;20015;-72
2023/08/23 01:25:56;;;;;;;8.98;4.43;;;17.90;99.90;;;;;;4995756;28;20108;-72
2023/08/23 01:28:22;;;;;;;8.30;4.32;;;17.90;99.90;;;;;;5000642;28;20022;-72
2023/08/23 01:30:49;;;;;;;7.45;4.63;;;17.90;99.90;;;;;;4999579;28;20030;-72
2023/08/23 01:33:35;;;;;;;8.20;4.72;;;17.90;99.90;;;;;;4993103;28;20041;-72
2023/08/23 01:36:24;;;;;;;9.32;4.00;;;17.90;99.90;;;;;;5003781;28;20030;-72
2023/08/23 01:38:53;;;;;;;7.65;4.10;;;17.90;99.90;;;;;;4999189;28;20034;-72
2023/08/23 01:41:19;;;;;;;7.75;4.70;;;17.90;99.90;;;;;;5000370;28;20035;-72
2023/08/23 01:43:46;;;;;;;8.25;4.45;;;17.80;99.90;;;;;;5000631;28;20014;-72
2023/08/23 01:46:11;;;;;;;9.30;4.55;;;17.80;99.90;;;;;;4998023;28;20026;-72
2023/08/23 01:48:37;;;;;;;9.45;4.45;;;17.80;99.90;;;;;;5017712;28;20046;-72
2023/08/23 01:51:03;;;;;;;8.30;4.32;;;17.80;99.90;;;;;;4997228;28;20113;-72
2023/08/23 01:53:28;;;;;;;7.38;4.70;;;17.80;99.90;;;;;;4998076;28;20030;-72
2023/08/23 01:55:54;;;;;;;9.35;4.72;;;17.80;99.90;;;;;;5002887;28;20481;-72
2023/08/23 01:58:21;;;;;;;6.80;4.25;;;17.80;99.90;;;;;;5002804;28;20018;-72
2023/08/23 02:00:47;;;;;;;7.00;4.35;;;17.80;99.90;;;;;;5001413;28;20057;-72
2023/08/23 02:03:13;;;;;;;9.95;4.53;;;17.80;99.90;;;;;;5007382;28;20104;-72
2023/08/23 02:05:39;;;;;;;7.57;4.18;;;17.70;99.90;;;;;;5001320;28;20490;-72
2023/08/23 02:08:05;;;;;;;7.72;4.72;;;17.70;99.90;;;;;;5002675;28;20030;-72
2023/08/23 02:10:31;;;;;;;7.72;4.30;;;17.70;99.90;;;;;;5002671;28;20090;-73
2023/08/23 02:12:57;;;;;;;9.07;4.60;;;17.70;99.90;;;;;;5003028;28;20062;-72
2023/08/23 02:15:24;;;;;;;8.45;4.82;;;17.70;99.90;;;;;;5002507;28;20069;-72
2023/08/23 02:17:53;;;;;;;9.63;4.90;;;17.70;99.90;;;;;;5003418;28;20029;-72
2023/08/23 02:20:18;;;;;;;7.10;4.72;;;17.70;99.90;;;;;;5005124;28;20030;-73
2023/08/23 02:22:44;;;;;;;6.25;4.47;;;17.70;99.90;;;;;;5016320;28;20169;-72
2023/08/23 02:25:10;;;;;;;8.52;4.50;;;17.70;99.90;;;;;;5014608;28;20350;-72
2023/08/23 02:27:35;;;;;;;7.00;4.38;;;17.60;99.90;;;;;;5001816;28;20027;-72
2023/08/23 02:30:01;;;;;;;6.57;4.28;;;17.60;99.90;;;;;;5002939;28;20034;-72
2023/08/23 02:32:27;;;;;;;6.95;4.10;;;17.60;99.90;;;;;;5020650;28;20377;-72
2023/08/23 02:34:54;;;;;;;6.75;4.07;;;17.60;99.90;;;;;;5002003;28;20030;-72
2023/08/23 02:37:20;;;;;;;7.40;4.60;;;17.60;99.90;;;;;;5005553;28;20022;-73
2023/08/23 02:39:45;;;;;;;9.60;4.80;;;17.60;99.90;;;;;;5003203;28;20485;-72
2023/08/23 02:42:11;;;;;;;9.73;5.65;;;17.60;99.90;;;;;;4999528;28;20021;-72
2023/08/23 02:44:37;;;;;;;11.48;5.05;;;17.60;99.90;;;;;;4997452;28;20034;-71
2023/08/23 02:47:02;;;;;;;11.02;5.55;;;17.60;99.90;;;;;;5001516;28;20022;-72
2023/08/23 02:49:28;;;;;;;9.15;5.90;;;17.60;99.90;;;;;;4998509;28;20082;-72
2023/08/23 02:51:54;;;;;;;11.85;5.72;;;17.60;99.90;;;;;;5021852;28;20061;-72
2023/08/23 02:54:20;;;;;;;11.10;5.60;;;17.60;99.90;;;;;;5007004;28;20052;-72
2023/08/23 02:56:45;;;;;;;7.55;5.57;;;17.60;99.90;;;;;;4998323;28;20053;-72
2023/08/23 02:59:11;;;;;;;9.23;5.32;;;17.70;99.90;;;;;;4998798;28;20051;-72
2023/08/23 03:01:36;;;;;;;9.82;6.03;;;17.70;99.90;;;;;;4995467;28;20045;-73
2023/08/23 03:04:02;;;;;;;14.93;8.57;;;17.70;99.90;;;;;;4999263;28;20023;-72
2023/08/23 03:06:28;;;;;;;14.70;8.50;;;17.70;99.90;;;;;;4997859;28;20120;-72
2023/08/23 03:08:53;;;;;;;20.05;10.45;;;17.80;99.90;;;;;;5002484;28;20061;-72
2023/08/23 03:11:19;;;;;;;20.02;10.70;;;17.80;99.90;;;;;;4996771;28;20533;-72
2023/08/23 03:13:44;;;;;;;18.48;10.75;;;17.80;99.90;;;;;;4991737;28;20154;-72
2023/08/23 03:16:10;;;;;;;21.23;12.20;;;17.80;99.90;;;;;;4996148;28;20019;-72
2023/08/23 03:18:37;;;;;;;25.98;13.77;;;17.80;99.90;;;;;;4998982;28;20019;-72
2023/08/23 03:21:02;;;;;;;23.73;14.32;;;17.80;99.90;;;;;;4998868;28;20033;-72
2023/08/23 03:23:28;;;;;;;23.60;15.43;;;17.80;99.90;;;;;;4996431;28;20010;-73
2023/08/23 03:25:54;;;;;;;26.23;16.48;;;17.80;99.90;;;;;;4996279;28;20386;-72
2023/08/23 03:28:19;;;;;;;29.45;16.05;;;17.80;99.90;;;;;;4983466;28;20027;-73
2023/08/23 03:30:45;;;;;;;33.00;16.17;;;17.90;99.90;;;;;;4996294;28;20029;-72
2023/08/23 03:33:11;;;;;;;31.40;16.27;;;17.80;99.90;;;;;;4995869;28;20421;-72
2023/08/23 03:35:36;;;;;;;29.73;16.67;;;17.90;99.90;;;;;;4996104;28;20081;-72
2023/08/23 03:38:02;;;;;;;31.25;17.00;;;17.90;99.90;;;;;;5000184;28;20038;-72
2023/08/23 03:40:28;;;;;;;32.63;16.00;;;17.90;99.90;;;;;;4995033;28;20041;-72
2023/08/23 03:42:53;;;;;;;36.85;17.60;;;17.90;99.90;;;;;;5004400;28;20026;-72
2023/08/23 03:45:19;;;;;;;29.75;16.58;;;17.90;99.90;;;;;;5001457;28;20030;-72
2023/08/23 03:47:45;;;;;;;31.20;15.98;;;17.90;99.90;;;;;;5001393;28;20465;-73
2023/08/23 03:50:12;;;;;;;27.98;15.27;;;17.90;99.90;;;;;;5015220;28;20021;-72
2023/08/23 03:52:37;;;;;;;29.80;15.48;;;17.90;99.90;;;;;;4996273;28;20113;-72
2023/08/23 03:55:05;;;;;;;28.33;14.45;;;17.90;99.90;;;;;;4996156;28;20058;-72
2023/08/23 03:57:30;;;;;;;27.13;14.93;;;17.90;99.90;;;;;;4995416;28;21221;-72
2023/08/23 03:59:56;;;;;;;32.05;15.45;;;17.90;99.90;;;;;;4994375;28;20077;-72
2023/08/23 04:02:21;;;;;;;30.65;15.98;;;17.90;99.90;;;;;;4995178;28;20046;-73
2023/08/23 04:04:47;;;;;;;29.33;14.85;;;17.90;99.90;;;;;;4995849;28;20050;-72
2023/08/23 04:07:14;;;;;;;25.80;15.23;;;17.90;99.90;;;;;;5001907;28;20026;-72
2023/08/23 04:09:40;;;;;;;27.60;14.68;;;17.90;99.90;;;;;;5003705;28;20481;-73
2023/08/23 04:12:07;;;;;;;28.00;14.77;;;17.90;99.90;;;;;;4995770;28;20097;-72
2023/08/23 04:14:32;;;;;;;30.63;15.60;;;17.90;99.90;;;;;;4994799;28;20038;-73
2023/08/23 04:16:59;;;;;;;26.90;14.43;;;17.90;99.90;;;;;;4995405;28;20022;-73
2023/08/23 04:19:26;;;;;;;28.17;15.40;;;17.90;99.90;;;;;;4993042;28;20026;-72
2023/08/23 04:21:51;;;;;;;37.13;15.88;;;17.90;99.90;;;;;;4994981;28;20030;-72
2023/08/23 04:24:17;;;;;;;30.50;15.40;;;17.90;99.90;;;;;;5000705;28;20062;-72
2023/08/23 04:26:43;;;;;;;28.90;15.50;;;17.90;99.90;;;;;;4996594;28;20109;-72
2023/08/23 04:29:08;;;;;;;30.48;15.57;;;17.90;99.90;;;;;;4996529;28;20022;-73
2023/08/23 04:31:34;;;;;;;29.88;15.60;;;17.80;99.90;;;;;;4995345;28;20512;-72
2023/08/23 04:34:02;;;;;;;31.83;15.93;;;17.90;99.90;;;;;;4993493;28;20093;-72
2023/08/23 04:36:28;;;;;;;36.03;17.80;;;17.80;99.90;;;;;;4993342;28;20032;-72
2023/08/23 04:38:53;;;;;;;31.67;16.25;;;17.80;99.90;;;;;;4998534;28;20117;-72
2023/08/23 04:41:19;;;;;;;35.90;16.58;;;17.80;99.90;;;;;;4995723;28;20080;-72
2023/08/23 04:43:45;;;;;;;34.75;18.02;;;17.80;99.90;;;;;;4997228;28;20022;-72
2023/08/23 04:46:10;;;;;;;33.70;17.05;;;17.80;99.90;;;;;;4992452;28;20470;-72
2023/08/23 04:48:36;;;;;;;35.00;18.25;;;17.80;99.90;;;;;;5000376;28;20025;-72
2023/08/23 04:51:03;;;;;;;37.92;18.90;;;17.80;99.90;;;;;;4993293;28;20032;-72
2023/08/23 04:53:30;;;;;;;39.10;19.23;;;17.80;99.90;;;;;;4993659;28;20018;-72
2023/08/23 04:55:59;;;;;;;42.63;19.65;;;17.80;99.90;;;;;;4999966;28;20014;-72
2023/08/23 04:58:32;;;;;;;46.72;20.77;;;17.80;99.90;;;;;;5010933;28;20024;-72
2023/08/23 05:00:58;;;;;;;44.05;22.00;;;17.80;99.90;;;;;;5004995;28;20070;-72
2023/08/23 05:03:25;;;;;;;48.90;21.88;;;17.80;99.90;;;;;;4994336;28;20023;-72
2023/08/23 05:05:52;;;;;;;52.58;23.35;;;17.80;99.90;;;;;;4993117;28;20027;-72
2023/08/23 05:08:18;;;;;;;48.97;22.25;;;17.90;99.90;;;;;;4997292;28;20029;-72
2023/08/23 05:10:43;;;;;;;50.78;23.70;;;17.90;99.90;;;;;;4997372;28;20022;-72
2023/08/23 05:13:09;;;;;;;58.40;23.67;;;17.90;99.90;;;;;;4992433;28;20093;-72
2023/08/23 05:15:35;;;;;;;56.58;24.40;;;18.00;99.90;;;;;;4992469;28;20022;-72
2023/08/23 05:18:01;;;;;;;55.55;24.35;;;18.00;99.90;;;;;;4992785;28;20282;-72
2023/08/23 05:20:26;;;;;;;52.10;22.92;;;18.10;99.90;;;;;;4993155;28;20110;-72
2023/08/23 05:22:52;;;;;;;53.28;25.55;;;18.10;99.90;;;;;;4996363;28;20034;-72
2023/08/23 05:25:18;;;;;;;52.58;23.60;;;18.10;99.90;;;;;;4990681;28;20030;-73
2023/08/23 05:27:46;;;;;;;57.33;24.90;;;18.20;99.90;;;;;;4984933;28;20062;-74
2023/08/23 05:30:12;;;;;;;53.22;25.13;;;18.30;99.90;;;;;;4992157;28;20031;-75
2023/08/23 05:32:38;;;;;;;53.78;24.10;;;18.30;99.90;;;;;;5002039;28;20113;-74
2023/08/23 05:35:04;;;;;;;60.88;25.58;;;18.30;99.90;;;;;;5002458;28;20029;-73
2023/08/23 05:37:29;;;;;;;59.97;25.40;;;18.40;99.90;;;;;;5000396;28;20025;-74
2023/08/23 05:39:55;;;;;;;60.22;27.73;;;18.50;99.90;;;;;;5012023;28;20076;-74
2023/08/23 05:42:20;;;;;;;55.20;26.40;;;18.50;99.90;;;;;;5009151;28;20026;-74
2023/08/23 05:44:46;;;;;;;66.40;27.92;;;18.50;99.90;;;;;;4996412;28;20027;-74
2023/08/23 05:47:12;;;;;;;69.85;28.40;;;18.60;99.90;;;;;;5011680;28;20563;-73
2023/08/23 05:49:37;;;;;;;66.72;27.60;;;18.60;99.90;;;;;;5007447;28;20049;-73
2023/08/23 05:52:03;;;;;;;62.55;27.63;;;18.60;99.90;;;;;;4996502;28;20057;-74
2023/08/23 05:54:31;;;;;;;58.65;26.77;;;18.70;99.90;;;;;;4997363;28;20097;-74
2023/08/23 05:56:59;;;;;;;63.33;27.33;;;18.70;99.90;;;;;;5001553;28;20132;-73
2023/08/23 05:59:25;;;;;;;73.00;29.55;;;18.80;99.90;;;;;;4997129;28;20437;-73
2023/08/23 06:01:51;;;;;;;67.45;29.17;;;18.80;99.90;;;;;;4996971;28;20018;-73
2023/08/23 06:04:17;;;;;;;77.40;30.50;;;18.80;99.90;;;;;;5008270;28;20131;-74
2023/08/23 06:06:42;;;;;;;74.43;30.85;;;18.90;99.90;;;;;;4998156;28;20022;-74
2023/08/23 06:09:08;;;;;;;75.47;30.02;;;18.90;99.90;;;;;;4996813;28;20025;-74
2023/08/23 06:11:33;;;;;;;77.53;31.85;;;18.90;99.90;;;;;;4989401;28;20482;-73
2023/08/23 06:13:59;;;;;;;79.00;33.72;;;19.00;99.90;;;;;;4992284;28;20026;-74
2023/08/23 06:16:25;;;;;;;92.85;35.47;;;19.00;99.90;;;;;;5008389;28;20470;-74
2023/08/23 06:18:50;;;;;;;90.88;35.13;;;19.10;99.90;;;;;;4994731;28;20023;-74
2023/08/23 06:21:16;;;;;;;81.50;34.65;;;19.00;99.90;;;;;;4999339;28;20337;-73
2023/08/23 06:23:43;;;;;;;81.25;36.05;;;19.10;99.90;;;;;;4999272;28;20355;-73
2023/08/23 06:26:09;;;;;;;89.78;36.17;;;19.10;99.90;;;;;;5000010;28;20015;-73
2023/08/23 06:28:35;;;;;;;85.32;35.80;;;19.20;99.90;;;;;;5009731;28;20096;-74
2023/08/23 06:31:01;;;;;;;88.43;35.33;;;19.20;99.90;;;;;;4997228;28;20022;-73
2023/08/23 06:33:27;;;;;;;85.43;36.10;;;19.20;99.90;;;;;;4994412;28;20019;-73
2023/08/23 06:35:53;;;;;;;82.53;36.97;;;19.20;99.90;;;;;;4995752;28;20137;-70
2023/08/23 06:38:18;;;;;;;136.45;39.42;;;19.30;99.90;;;;;;4994942;28;20489;-72
2023/08/23 06:40:44;;;;;;;87.68;36.60;;;19.30;99.90;;;;;;4992265;28;20152;-74
2023/08/23 06:43:19;;;;;;;91.40;38.20;;;19.30;99.90;;;;;;4993452;28;20031;-74
2023/08/23 06:45:44;;;;;;;;;;;19.30;99.90;;;;;;4992950;28;20032;-74
2023/08/23 06:48:10;;;;;;;85.07;36.60;;;19.30;99.90;;;;;;4999988;28;19910;-74
2023/08/23 06:50:36;;;;;;;77.32;36.17;;;19.30;99.90;;;;;;4996866;28;20334;-74
2023/08/23 06:53:01;;;;;;;82.93;36.25;;;19.40;99.90;;;;;;4999556;28;20034;-75
2023/08/23 06:55:27;;;;;;;84.00;37.10;;;19.40;99.90;;;;;;4998196;28;20018;-74
2023/08/23 06:57:53;;;;;;;82.15;37.25;;;19.40;99.90;;;;;;4999771;28;20052;-74
2023/08/23 07:00:19;;;;;;;81.50;37.72;;;19.50;99.90;;;;;;4998679;28;20046;-72
2023/08/23 07:02:44;;;;;;;81.97;36.58;;;19.50;99.90;;;;;;4985297;28;20029;-72
2023/08/23 07:05:10;;;;;;;80.38;36.38;;;19.50;99.90;;;;;;4996142;28;20414;-72
2023/08/23 07:07:36;;;;;;;82.82;36.28;;;19.60;99.90;;;;;;4992610;28;20105;-72
2023/08/23 07:10:02;;;;;;;69.78;33.33;;;19.60;99.90;;;;;;4998767;28;20033;-72
2023/08/23 07:12:28;;;;;;;64.50;31.10;;;19.70;99.90;;;;;;4991718;28;20042;-72
2023/08/23 07:14:53;;;;;;;58.85;28.15;;;19.70;99.90;;;;;;4992924;28;20224;-72
2023/08/23 07:17:19;;;;;;;57.08;27.10;;;19.70;99.90;;;;;;4992569;28;20484;-72
2023/08/23 07:19:47;;;;;;;59.75;28.45;;;19.70;99.90;;;;;;4992133;28;20090;-72
2023/08/23 07:22:13;;;;;;;59.35;28.67;;;19.80;99.90;;;;;;4990701;28;20125;-72
2023/08/23 07:24:39;;;;;;;61.42;29.50;;;19.80;99.90;;;;;;4990935;28;20037;-73
2023/08/23 07:27:05;;;;;;;56.20;27.63;;;19.80;99.90;;;;;;4993408;28;20109;-73
2023/08/23 07:29:30;;;;;;;59.10;27.33;;;19.90;99.90;;;;;;5002493;28;20105;-73
2023/08/23 07:31:58;;;;;;;55.05;26.60;;;20.00;99.90;;;;;;5004512;28;20030;-73
2023/08/23 07:34:25;;;;;;;59.70;26.35;;;20.00;99.90;;;;;;4991114;28;20014;-73
2023/08/23 07:36:50;;;;;;;56.17;29.35;;;20.00;99.90;;;;;;4991804;28;20517;-73
2023/08/23 07:39:16;;;;;;;52.65;27.73;;;20.00;99.90;;;;;;4993342;28;20022;-73
2023/08/23 07:41:42;;;;;;;57.78;28.30;;;20.00;99.90;;;;;;4993571;28;20098;-73
2023/08/23 07:44:07;;;;;;;57.15;28.63;;;20.10;99.90;;;;;;4992569;28;20466;-73
2023/08/23 07:46:33;;;;;;;58.28;28.48;;;20.10;99.90;;;;;;4993472;28;20038;-73
2023/08/23 07:48:58;;;;;;;64.07;30.02;;;20.20;99.90;;;;;;4988738;28;20022;-73
2023/08/23 07:51:24;;;;;;;56.17;29.27;;;20.20;99.90;;;;;;4997173;28;20026;-73
2023/08/23 07:53:50;;;;;;;57.42;29.23;;;20.30;99.90;;;;;;5005849;28;20049;-73
2023/08/23 07:56:17;;;;;;;52.38;28.33;;;20.30;99.90;;;;;;5006343;28;20029;-73
2023/08/23 07:58:43;;;;;;;58.30;30.00;;;20.40;99.90;;;;;;4995532;28;20485;-73
2023/08/23 08:01:08;;;;;;;61.15;30.92;;;20.40;99.90;;;;;;4992097;28;20121;-73
2023/08/23 08:03:34;;;;;;;59.80;32.28;;;20.50;99.90;;;;;;4990675;28;20035;-74
2023/08/23 08:05:59;;;;;;;62.58;33.10;;;20.50;99.90;;;;;;4990919;28;20037;-73
2023/08/23 08:08:25;;;;;;;67.20;32.53;;;20.50;99.90;;;;;;4993228;28;20023;-73
2023/08/23 08:10:51;;;;;;;62.72;34.22;;;20.60;99.90;;;;;;4994182;28;20018;-74
2023/08/23 08:13:17;;;;;;;67.88;38.58;;;20.70;99.90;;;;;;4991850;28;20098;-73
2023/08/23 08:15:43;;;;;;;71.70;41.50;;;20.70;99.90;;;;;;4993809;28;20019;-73
2023/08/23 08:18:08;;;;;;;70.38;38.85;;;20.80;99.90;;;;;;4991697;28;20081;-73
2023/08/23 08:20:34;;;;;;;68.97;40.28;;;20.80;99.90;;;;;;4990373;28;20026;-73
2023/08/23 08:22:59;;;;;;;67.07;38.35;;;21.00;99.90;;;;;;4994586;28;20029;-73
2023/08/23 08:25:25;;;;;;;63.22;37.30;;;21.10;99.90;;;;;;4996825;28;20026;-73
2023/08/23 08:27:51;;;;;;;62.05;37.38;;;21.30;99.90;;;;;;5005979;28;20093;-73
2023/08/23 08:30:17;;;;;;;61.72;38.22;;;21.50;99.90;;;;;;4990210;28;20026;-73
2023/08/23 08:32:43;;;;;;;62.50;36.70;;;21.70;99.90;;;;;;4988292;28;20565;-73
2023/08/23 08:35:10;;;;;;;59.42;36.75;;;21.80;99.90;;;;;;4990321;28;20388;-73
2023/08/23 08:37:36;;;;;;;53.90;33.40;;;22.00;99.90;;;;;;4991196;28;20097;-74
2023/08/23 08:40:02;;;;;;;52.67;33.72;;;22.10;99.90;;;;;;4990974;28;20466;-74
2023/08/23 08:42:29;;;;;;;57.40;35.67;;;22.30;99.90;;;;;;4996611;28;20015;-73
2023/08/23 08:44:55;;;;;;;55.17;36.25;;;22.50;99.90;;;;;;4989560;28;20506;-73
2023/08/23 08:47:23;;;;;;;56.30;34.95;;;22.60;99.90;;;;;;4998212;28;20025;-73
2023/08/23 08:49:49;;;;;;;43.95;26.73;;;22.70;99.90;;;;;;4991513;28;20363;-73
2023/08/23 08:52:18;;;;;;;48.15;27.95;;;22.80;99.90;;;;;;4991883;28;20053;-72
2023/08/23 08:54:47;;;;;;;44.85;27.73;;;22.90;99.90;;;;;;4991292;28;20026;-73
2023/08/23 08:57:13;;;;;;;44.78;28.13;;;23.00;99.90;;;;;;4990706;28;20018;-73
2023/08/23 08:59:40;;;;;;;42.38;27.42;;;23.10;99.90;;;;;;4986652;28;20525;-73
2023/08/23 09:02:09;;;;;;;43.28;25.33;;;23.20;99.90;;;;;;4990656;28;20121;-73
2023/08/23 09:04:36;;;;;;;42.40;25.20;;;23.40;99.90;;;;;;4990048;28;20018;-73
2023/08/23 09:07:02;;;;;;;37.30;25.77;;;23.50;99.90;;;;;;4983659;28;20378;-73
2023/08/23 09:09:28;;;;;;;40.38;25.58;;;23.60;99.90;;;;;;4990525;28;20478;-73
2023/08/23 09:11:53;;;;;;;39.83;24.58;;;23.70;99.90;;;;;;4990840;28;20036;-73
2023/08/23 09:14:25;;;;;;;32.10;21.52;;;23.80;99.90;;;;;;4989862;28;20038;-73
2023/08/23 09:16:51;;;;;;;34.83;17.35;;;23.90;99.90;;;;;;4989094;28;20019;-73
2023/08/23 09:19:16;;;;;;;28.55;16.02;;;24.00;99.90;;;;;;4987839;28;20029;-73
2023/08/23 09:21:43;;;;;;;29.92;15.00;;;24.10;99.90;;;;;;4990628;28;20441;-73
2023/08/23 09:24:10;;;;;;;27.45;14.85;;;24.20;99.90;;;;;;4998688;28;20068;-73
2023/08/23 09:26:35;;;;;;;28.73;16.02;;;24.30;99.90;;;;;;4992694;28;20019;-73
2023/08/23 09:29:04;;;;;;;25.85;15.00;;;24.40;99.90;;;;;;5002208;28;20484;-73
2023/08/23 09:31:30;;;;;;;23.13;14.45;;;24.60;99.90;;;;;;4988963;28;20038;-73
2023/08/23 09:33:56;;;;;;;26.45;13.23;;;24.70;99.90;;;;;;4978268;28;20014;-73
2023/08/23 09:36:29;;;;;;;22.90;11.55;;;24.70;99.90;;;;;;4993890;28;20031;-73
2023/08/23 09:38:56;;;;;;;26.20;12.65;;;24.80;99.90;;;;;;4990339;28;20026;-73
2023/08/23 09:41:22;;;;;;;18.95;10.05;;;24.90;99.90;;;;;;4992690;28;20058;-73
2023/08/23 09:43:52;;;;;;;17.67;10.00;;;25.00;99.90;;;;;;4994104;28;20034;-73
2023/08/23 09:46:24;;;;;;;18.63;10.00;;;25.20;99.90;;;;;;4986228;28;20022;-73
2023/08/23 09:48:52;;;;;;;17.65;9.98;;;25.30;99.90;;;;;;4985630;28;20081;-74
2023/08/23 09:51:22;;;;;;;17.48;9.70;;;25.50;99.90;;;;;;4990593;28;20489;-74
2023/08/23 09:53:55;;;;;;;15.52;8.73;;;25.60;99.90;;;;;;4989829;28;20069;-73
2023/08/23 09:56:22;;;;;;;16.23;8.23;;;25.60;99.90;;;;;;4990325;28;20450;-73
2023/08/23 09:58:48;;;;;;;16.20;7.63;;;25.80;99.90;;;;;;4993366;28;20402;-73
2023/08/23 10:01:15;;;;;;;13.35;6.38;;;25.90;99.90;;;;;;4991160;28;20038;-73
2023/08/23 10:03:42;;;;;;;11.40;5.90;;;26.10;99.90;;;;;;4995283;28;20072;-73
2023/08/23 10:06:08;;;;;;;14.27;6.50;;;26.20;99.90;;;;;;4996188;28;20026;-73
2023/08/23 10:08:35;;;;;;;16.52;7.28;;;26.30;99.90;;;;;;5000008;28;20056;-74
2023/08/23 10:11:01;;;;;;;13.05;7.00;;;26.40;99.90;;;;;;4994162;28;20034;-73
2023/08/23 10:13:32;;;;;;;18.35;7.10;;;26.50;99.90;;;;;;4990303;28;20019;-73
2023/08/23 10:15:59;;;;;;;20.30;7.75;;;26.50;99.90;;;;;;4992820;28;20381;-74
2023/08/23 10:18:27;;;;;;;20.35;6.72;;;26.70;99.90;;;;;;4994177;28;20018;-74
2023/08/23 10:20:54;;;;;;;14.25;5.60;;;26.70;99.90;;;;;;4993641;28;20022;-74
2023/08/23 10:23:21;;;;;;;11.52;4.40;;;26.80;99.90;;;;;;4993502;28;20022;-73
2023/08/23 10:25:48;;;;;;;14.52;5.32;;;26.90;99.90;;;;;;4993738;28;20025;-73
2023/08/23 10:28:16;;;;;;;16.85;6.38;;;27.00;99.90;;;;;;5008570;28;20080;-73
2023/08/23 10:30:50;;;;;;;10.88;4.78;;;27.10;99.90;;;;;;4983065;28;20018;-73
2023/08/23 10:33:18;;;;;;;8.83;3.50;;;27.30;99.90;;;;;;4995377;28;20032;-73
2023/08/23 10:35:45;;;;;;;11.32;4.15;;;27.40;99.90;;;;;;4997073;28;20345;-73
2023/08/23 10:38:11;;;;;;;12.75;4.78;;;27.50;99.90;;;;;;5001748;28;20026;-73
2023/08/23 10:40:39;;;;;;;11.32;4.50;;;27.40;99.90;;;;;;4997233;28;20034;-73
2023/08/23 10:43:13;;;;;;;11.43;4.18;;;27.20;99.90;;;;;;5005604;28;20022;-74
2023/08/23 10:45:52;;;;;;;8.30;3.92;;;27.00;99.90;;;;;;4999791;28;20073;-74
2023/08/23 10:48:20;;;;;;;10.65;3.92;;;26.90;99.90;;;;;;4997174;28;20189;-73
2023/08/23 10:50:48;;;;;;;7.68;3.60;;;26.80;99.90;;;;;;4997332;28;20026;-74
2023/08/23 10:53:18;;;;;;;8.82;3.15;;;26.70;99.90;;;;;;4997141;28;20081;-73
2023/08/23 10:55:44;;;;;;;7.25;2.25;;;26.70;99.90;;;;;;4997163;28;20030;-74
2023/08/23 10:58:12;;;;;;;9.52;2.58;;;26.60;99.90;;;;;;5003117;28;20511;-74
2023/08/23 11:00:37;;;;;;;6.82;2.40;;;26.50;99.90;;;;;;5001416;28;20137;-73
2023/08/23 11:03:04;;;;;;;5.65;2.20;;;26.50;99.90;;;;;;4998476;28;20105;-73
2023/08/23 11:05:30;;;;;;;8.82;2.45;;;26.40;99.90;;;;;;5002171;28;20026;-74
2023/08/23 11:07:59;;;;;;;6.05;2.30;;;26.30;99.90;;;;;;4990798;28;20037;-74
2023/08/23 11:10:25;;;;;;;5.18;2.03;;;26.20;99.90;;;;;;5007660;28;20385;-74
2023/08/23 11:12:51;;;;;;;6.20;2.45;;;26.10;99.90;;;;;;4993048;28;20015;-74
2023/08/23 11:15:17;;;;;;;6.15;2.35;;;26.20;99.90;;;;;;4988378;28;20129;-74
2023/08/23 11:17:43;;;;;;;7.03;2.20;;;26.10;99.90;;;;;;4997023;28;20122;-74
2023/08/23 11:20:10;;;;;;;6.13;2.10;;;26.00;99.90;;;;;;4989392;28;20031;-74
2023/08/23 11:22:36;;;;;;;10.82;2.30;;;25.90;99.90;;;;;;4998626;28;20053;-73
2023/08/23 11:25:02;;;;;;;6.45;2.00;;;25.80;99.90;;;;;;4996607;28;20488;-74
2023/08/23 11:27:29;;;;;;;4.03;1.42;;;25.80;99.90;;;;;;5002971;28;20030;-74
2023/08/23 11:29:58;;;;;;;6.97;2.00;;;25.80;99.90;;;;;;5002962;28;20031;-74
2023/08/23 11:32:24;;;;;;;8.13;2.00;;;25.80;99.90;;;;;;5002822;28;20473;-73
2023/08/23 11:34:50;;;;;;;8.52;2.13;;;25.80;99.90;;;;;;5002775;28;20034;-73
2023/08/23 11:37:15;;;;;;;6.65;1.90;;;25.80;99.90;;;;;;4998018;28;20095;-73
2023/08/23 11:39:41;;;;;;;4.90;1.90;;;25.80;99.90;;;;;;4995736;28;20033;-74
2023/08/23 11:42:07;;;;;;;6.15;1.85;;;25.80;99.90;;;;;;4999285;28;20466;-74
2023/08/23 11:44:32;;;;;;;5.40;2.00;;;26.00;99.90;;;;;;4996687;28;20048;-74
2023/08/23 11:46:58;;;;;;;8.45;2.00;;;26.20;99.90;;;;;;4996012;28;20046;-74
2023/08/23 11:49:25;;;;;;;6.20;1.73;;;26.50;99.90;;;;;;5011324;28;20029;-73
2023/08/23 11:51:50;;;;;;;6.00;2.00;;;26.70;99.90;;;;;;4998498;28;20117;-74
2023/08/23 11:54:17;;;;;;;4.50;1.90;;;27.00;99.40;;;;;;4998306;28;20077;-74
2023/08/23 11:56:44;;;;;;;6.32;1.73;;;27.20;98.50;;;;;;4998576;28;20462;-73
2023/08/23 11:59:13;;;;;;;4.18;1.90;;;27.10;97.80;;;;;;5007696;28;20080;-75
2023/08/23 12:01:39;;;;;;;3.58;1.58;;;27.10;97.60;;;;;;5005487;28;20035;-74
2023/08/23 12:04:08;;;;;;;4.50;1.42;;;27.10;96.90;;;;;;5007018;28;20033;-73
2023/08/23 12:06:33;;;;;;;4.10;1.40;;;27.10;96.60;;;;;;4999196;28;20033;-73
2023/08/23 12:08:59;;;;;;;3.78;1.30;;;27.10;96.40;;;;;;4998687;28;20026;-74
2023/08/23 12:11:25;;;;;;;4.18;1.55;;;27.10;95.90;;;;;;4998141;28;20022;-73
2023/08/23 12:13:52;;;;;;;4.47;1.50;;;27.20;95.40;;;;;;4997035;28;20050;-73
2023/08/23 12:16:18;;;;;;;6.88;1.30;;;27.10;95.20;;;;;;4985540;28;20138;-73
2023/08/23 12:18:48;;;;;;;4.50;1.50;;;27.20;95.60;;;;;;5003370;28;20045;-75
2023/08/23 12:21:15;;;;;;;7.07;1.70;;;27.40;95.20;;;;;;5011805;28;20042;-75
2023/08/23 12:23:41;;;;;;;3.28;1.30;;;27.50;94.80;;;;;;5015165;28;20483;-76
2023/08/23 12:26:06;;;;;;;5.13;1.60;;;27.50;94.20;;;;;;4997413;28;20026;-74
2023/08/23 12:28:32;;;;;;;3.75;1.30;;;27.40;93.90;;;;;;5000990;28;20058;-75
2023/08/23 12:30:58;;;;;;;5.28;1.45;;;27.40;94.20;;;;;;4997936;28;20045;-76
2023/08/23 12:33:23;;;;;;;6.57;1.70;;;27.40;94.20;;;;;;4997919;28;20505;-76